Dandenong, Australia
Current Conditions -  °F | °C
As of 3:00 PM on Wednesday 28 Jan 2015 (Local Time) from YMEN Reporting Station
Broken Clouds Broken Clouds  
Wind Chill: 75°   Ceiling: 6900
Heat Index: 75°   Visibility: 6mi
Dew Point: 48°   Wind: 21mph
Humidity: 38%   Direction: 150°SSE
Pressure: 30"   Gusts: NA
Location:  37.99°S, 145.21°E
Report Text: YMEN 280400Z AUTO 15018KT 9999 // SCT060 BKN069 24/09 Q1016
Loading
Personal Weather Stations






























Interactive Weather Map New forecast layout! Learn more

10-Day Weather Forecast

Advertisements
Track Severe Weather on mobile